Hlavní strana
METAR-TAF:

METAR-TAF

Letiště :

Mo i Rana, Norsko

zeměpisná šířka: 66-22N, zeměpisná délka: 014-18E, výška: 7 m

Aktuální stav počasí

Zpráva byla vytvořena před 19 minutami, v 05:20 UTC
Západní vítr 10 kt
Teplota 0°C
Vlhkost vzduchu 80%
Tlak 1009 hPa
Viditelnost 10 km a více
Polojasno ve výšce 3000 ft
Oblačno až skoro zataženo ve výšce 5000 ft
přeháňky v blízkosti

METAR: ENRA 250520Z 26010KT 9999 VCSH SCT030 BKN050 00/M03 Q1009

Čas: 06:39 (05:39 UTC)

Předpověď počasí

Zpráva byla vytvořena před 12 hodinami a 39 minutami, v 17:00 UTC
Předpověď platná od 24 v 18 UTC do 24 v 22 UTC
vítr z různých směrů 5 kt
Viditelnost 10 km a více
Skoro jasno ve výšce 1500 ft, Vertikální cumulus.
Oblačno až skoro zataženo ve výšce 4000 ft
Dočasný
od 24 v 18 UTC do 24 v 22 UTC
Západní vítr 10 kt
Viditelnost: 2000 m
ve výšce 800 ft
sněhové přeháňky

TAF: ENRA 241700Z 2418/2422 VRB05KT 9999 FEW015TCU BKN040 TEMPO 2418/2422 27010KT 2000 SHSN VV008

Stav a předpovědi počasí z více než 4 000 letišť (zprávy METAR a TAF).

Červené a žluté tečky na mapě představují dostupné meteorologické stanice.

Když kurzor umístíte na tečku, zobrazí se název stanice.

Pak kliknutím zobrazíte stav a předpověď počasí.

Chcete-li změnit mapu, kliknutím na zelené tlačítko se znaménkem +mapu přiblížíte, kliknutím na zelené tlačítko se znaménkem – mapu oddálíte a kliknutím na zelené šipky přejdete na sousední mapy.


METAR-TAF: